createdAt,value
2018-04-06T00:00:39.516Z,86.31
2018-04-06T00:03:06.916Z,86.12
2018-04-06T00:05:34.318Z,85.09
2018-04-06T00:08:01.702Z,84.21
2018-04-06T00:10:29.100Z,83.68
2018-04-06T00:12:56.488Z,83.39
2018-04-06T00:15:23.891Z,83.41
2018-04-06T00:17:51.272Z,83.40
2018-04-06T00:20:18.652Z,83.14
2018-04-06T00:22:46.056Z,83.08
2018-04-06T00:25:13.453Z,83.05
2018-04-06T00:27:40.855Z,83.24
2018-04-06T00:30:08.235Z,83.72
2018-04-06T00:32:35.637Z,83.59
2018-04-06T00:35:03.020Z,83.76
2018-04-06T00:37:30.409Z,83.53
2018-04-06T00:39:57.792Z,83.56
2018-04-06T00:42:25.764Z,83.61
2018-04-06T00:44:53.165Z,84.73
2018-04-06T00:47:20.553Z,85.58
2018-04-06T00:49:47.944Z,84.97
2018-04-06T00:52:15.336Z,84.68
2018-04-06T00:54:42.753Z,84.19
2018-04-06T00:57:10.145Z,83.94
2018-04-06T00:59:37.540Z,83.73
2018-04-06T01:02:04.950Z,83.55
2018-04-06T01:04:32.333Z,83.41
2018-04-06T01:06:59.772Z,83.50
2018-04-06T01:09:27.168Z,83.44
2018-04-06T01:11:54.557Z,83.40
2018-04-06T01:14:21.932Z,82.74
2018-04-06T01:16:49.755Z,82.70
2018-04-06T01:19:17.148Z,82.88
2018-04-06T01:21:44.543Z,82.82
2018-04-06T01:24:11.932Z,83.03
2018-04-06T01:26:39.327Z,82.99
2018-04-06T01:29:06.720Z,82.97
2018-04-06T01:31:34.113Z,82.71
2018-04-06T01:34:01.520Z,82.82
2018-04-06T01:36:28.912Z,82.78
2018-04-06T01:38:56.309Z,82.74
2018-04-06T01:41:23.694Z,82.78
2018-04-06T01:43:51.075Z,82.64
2018-04-06T01:46:18.477Z,83.15
2018-04-06T01:48:45.865Z,83.16
2018-04-06T01:51:13.256Z,83.33
2018-04-06T01:53:40.661Z,83.60
2018-04-06T01:56:08.045Z,83.92
2018-04-06T01:58:35.469Z,84.08
2018-04-06T02:01:02.880Z,84.30
2018-04-06T02:03:30.272Z,84.54
2018-04-06T02:05:57.652Z,84.69
2018-04-06T02:08:25.036Z,84.84
2018-04-06T02:10:52.428Z,85.00
2018-04-06T02:13:19.829Z,85.39
2018-04-06T02:15:47.204Z,85.45
2018-04-06T02:18:14.605Z,85.61
2018-04-06T02:20:42.000Z,85.83
2018-04-06T02:23:09.408Z,86.38
2018-04-06T02:25:36.801Z,86.50
2018-04-06T02:28:04.180Z,85.91
2018-04-06T02:30:31.573Z,85.35
2018-04-06T02:32:58.967Z,85.31
2018-04-06T02:35:26.352Z,84.93
2018-04-06T02:37:53.740Z,85.00
2018-04-06T02:40:21.144Z,85.33
2018-04-06T02:42:48.539Z,85.22
2018-04-06T02:45:15.929Z,85.34
2018-04-06T02:47:43.329Z,85.64
2018-04-06T02:50:10.730Z,85.72
2018-04-06T02:52:38.333Z,85.80
2018-04-06T02:55:05.728Z,85.76
2018-04-06T02:57:33.214Z,85.50
2018-04-06T03:00:00.638Z,85.24
2018-04-06T03:02:28.043Z,85.57
2018-04-06T03:04:55.436Z,85.66
2018-04-06T03:07:22.820Z,85.37
2018-04-06T03:09:50.220Z,85.29
2018-04-06T03:12:17.609Z,85.40
2018-04-06T03:14:45.004Z,85.54
2018-04-06T03:17:12.400Z,85.79
2018-04-06T03:19:39.796Z,85.90
2018-04-06T03:22:07.188Z,85.94
2018-04-06T03:24:34.584Z,85.64
2018-04-06T03:27:01.977Z,85.69
2018-04-06T03:29:29.404Z,85.65
2018-04-06T03:31:56.788Z,85.85
2018-04-06T03:34:24.181Z,85.75
2018-04-06T03:36:51.580Z,85.70
2018-04-06T03:39:18.972Z,85.85
2018-04-06T03:41:46.369Z,86.29
2018-04-06T03:44:13.760Z,86.34
2018-04-06T03:46:41.177Z,85.92
2018-04-06T03:49:08.573Z,85.81
2018-04-06T03:51:36.008Z,85.95
2018-04-06T03:54:03.403Z,86.05
2018-04-06T03:56:30.789Z,86.00
2018-04-06T03:58:58.188Z,86.04
2018-04-06T04:01:25.629Z,86.20
2018-04-06T04:03:53.028Z,86.36
2018-04-06T04:06:20.425Z,86.64
2018-04-06T04:08:48.129Z,86.72
2018-04-06T04:11:15.521Z,86.88
2018-04-06T04:13:42.904Z,86.97
2018-04-06T04:16:10.300Z,87.25
2018-04-06T04:18:37.692Z,87.45
2018-04-06T04:21:05.147Z,87.38
2018-04-06T04:23:32.489Z,87.69
2018-04-06T04:25:59.888Z,87.72
2018-04-06T04:28:27.276Z,87.88
2018-04-06T04:30:54.668Z,87.86
2018-04-06T04:33:22.066Z,87.79
2018-04-06T04:35:49.452Z,87.92
2018-04-06T04:38:16.848Z,88.32
2018-04-06T04:40:44.244Z,88.68
2018-04-06T04:43:11.646Z,88.21
2018-04-06T04:45:39.036Z,88.76
2018-04-06T04:48:06.432Z,88.69
2018-04-06T04:50:33.824Z,89.20
2018-04-06T04:53:01.223Z,89.50
2018-04-06T04:55:28.618Z,88.75
2018-04-06T04:57:56.008Z,88.57
2018-04-06T05:00:23.408Z,88.54
2018-04-06T05:02:50.800Z,88.38
2018-04-06T05:05:18.221Z,88.24
2018-04-06T05:07:45.604Z,88.10
2018-04-06T05:10:12.997Z,87.95
2018-04-06T05:12:40.528Z,87.83
2018-04-06T05:15:07.921Z,87.75
2018-04-06T05:17:35.364Z,87.82
2018-04-06T05:20:02.713Z,87.50
2018-04-06T05:22:30.133Z,87.47
2018-04-06T05:24:57.535Z,87.52
2018-04-06T05:27:24.924Z,87.19
2018-04-06T05:29:52.320Z,86.76
2018-04-06T05:32:19.804Z,86.75
2018-04-06T05:34:47.161Z,86.97
2018-04-06T05:37:14.548Z,87.20
2018-04-06T05:39:41.948Z,86.90
2018-04-06T05:42:09.350Z,86.23
2018-04-06T05:44:36.732Z,85.84
2018-04-06T05:47:04.132Z,85.46
2018-04-06T05:49:31.528Z,85.25
2018-04-06T05:51:58.932Z,85.09
2018-04-06T05:54:26.410Z,84.15
2018-04-06T05:56:53.808Z,84.14
2018-04-06T05:59:21.221Z,84.23
2018-04-06T06:01:49.682Z,84.01
2018-04-06T06:04:17.067Z,83.55
2018-04-06T06:06:44.475Z,83.19
2018-04-06T06:09:11.917Z,82.78
2018-04-06T06:11:39.308Z,82.05
2018-04-06T06:14:06.720Z,81.99
2018-04-06T06:16:34.113Z,81.77
2018-04-06T06:19:01.536Z,82.04
2018-04-06T06:21:28.920Z,80.60
2018-04-06T06:23:56.327Z,81.06
2018-04-06T06:26:23.720Z,81.17
2018-04-06T06:28:51.120Z,80.13
2018-04-06T06:31:18.512Z,79.52
2018-04-06T06:33:45.912Z,79.27
2018-04-06T06:36:13.301Z,79.75
2018-04-06T06:38:40.684Z,79.12
2018-04-06T06:41:08.104Z,78.66
2018-04-06T06:43:35.503Z,78.59
2018-04-06T06:46:02.902Z,77.24
2018-04-06T06:48:30.276Z,77.55
2018-04-06T06:50:57.665Z,77.76
2018-04-06T06:53:25.062Z,76.77
2018-04-06T06:55:52.440Z,75.40
2018-04-06T06:58:19.832Z,75.80
2018-04-06T07:00:47.212Z,77.10
2018-04-06T07:03:14.598Z,74.21
2018-04-06T07:05:41.984Z,75.28
2018-04-06T07:08:09.363Z,74.35
2018-04-06T07:10:36.766Z,73.71
2018-04-06T07:13:04.148Z,73.99
2018-04-06T07:15:31.536Z,74.43
2018-04-06T07:17:58.925Z,73.44
2018-04-06T07:20:26.303Z,73.36
2018-04-06T07:22:53.692Z,72.68
2018-04-06T07:25:21.084Z,71.75
2018-04-06T07:27:48.468Z,71.93
2018-04-06T07:30:15.853Z,71.05
2018-04-06T07:32:43.244Z,69.54
2018-04-06T07:35:10.628Z,69.64
2018-04-06T07:37:38.064Z,69.36
2018-04-06T07:40:05.447Z,69.82
2018-04-06T07:42:32.842Z,68.62
2018-04-06T07:45:00.220Z,68.30
2018-04-06T07:47:27.613Z,66.86
2018-04-06T07:49:54.997Z,67.81
2018-04-06T07:52:22.791Z,66.40
2018-04-06T07:54:50.178Z,67.20
2018-04-06T07:57:17.560Z,64.42
2018-04-06T07:59:44.948Z,64.20
2018-04-06T08:02:12.332Z,63.74
2018-04-06T08:04:39.732Z,64.13
2018-04-06T08:07:07.104Z,63.15
2018-04-06T08:09:34.505Z,65.27
2018-04-06T08:12:01.887Z,62.86
2018-04-06T08:14:29.272Z,61.59
2018-04-06T08:16:56.651Z,60.88
2018-04-06T08:19:24.040Z,64.25
2018-04-06T08:21:51.424Z,61.25
2018-04-06T08:24:18.813Z,60.32
2018-04-06T08:26:46.196Z,58.66
2018-04-06T08:29:13.584Z,59.43
2018-04-06T08:31:40.980Z,59.41
2018-04-06T08:34:08.749Z,57.80
2018-04-06T08:36:36.139Z,57.57
2018-04-06T08:39:03.521Z,58.45
2018-04-06T08:41:30.913Z,58.06
2018-04-06T08:43:58.372Z,56.37
2018-04-06T08:46:25.760Z,56.41
2018-04-06T08:48:53.137Z,59.56
2018-04-06T08:51:20.520Z,55.41
2018-04-06T08:53:47.904Z,56.45
2018-04-06T08:56:15.292Z,55.96
2018-04-06T08:58:42.673Z,55.61
2018-04-06T09:01:10.061Z,54.10
2018-04-06T09:03:37.449Z,52.36
2018-04-06T09:06:04.845Z,51.98
2018-04-06T09:08:32.281Z,52.13
2018-04-06T09:10:59.628Z,51.13
2018-04-06T09:13:27.004Z,49.99
2018-04-06T09:15:54.420Z,51.30
2018-04-06T09:18:21.796Z,50.90
2018-04-06T09:20:49.177Z,48.08
2018-04-06T09:23:16.560Z,49.24
2018-04-06T09:25:43.945Z,47.84
2018-04-06T09:28:11.347Z,47.09
2018-04-06T09:30:38.732Z,46.62
2018-04-06T09:33:06.123Z,47.64
2018-04-06T09:35:33.516Z,46.72
2018-04-06T09:38:00.922Z,43.91
2018-04-06T09:40:28.291Z,43.72
2018-04-06T09:42:55.683Z,43.63
2018-04-06T09:45:23.077Z,45.16
2018-04-06T09:47:50.456Z,40.85
2018-04-06T09:50:17.833Z,40.39
2018-04-06T09:52:45.220Z,40.45
2018-04-06T09:55:12.601Z,40.92
2018-04-06T09:57:39.985Z,41.20
2018-04-06T10:00:07.363Z,37.81
2018-04-06T10:02:41.196Z,37.60
2018-04-06T10:05:08.572Z,39.57
2018-04-06T10:07:35.953Z,38.55
2018-04-06T10:10:03.337Z,39.25
2018-04-06T10:12:30.772Z,36.48
2018-04-06T10:14:58.153Z,37.42
2018-04-06T10:17:25.580Z,35.50
2018-04-06T10:19:52.965Z,34.69
2018-04-06T10:22:20.341Z,32.08
2018-04-06T10:24:47.724Z,34.91
2018-04-06T10:27:15.111Z,32.61
2018-04-06T10:29:42.495Z,31.74
2018-04-06T10:32:09.881Z,32.66
2018-04-06T10:34:37.340Z,30.37
2018-04-06T10:37:04.716Z,29.15
2018-04-06T10:39:32.104Z,30.82
2018-04-06T10:41:59.480Z,31.19
2018-04-06T10:44:26.868Z,29.92
2018-04-06T10:46:54.249Z,31.23
2018-04-06T10:49:21.660Z,29.53
2018-04-06T10:51:49.041Z,29.48
2018-04-06T10:54:16.428Z,29.99
2018-04-06T10:56:43.812Z,32.28
2018-04-06T10:59:11.202Z,29.45
2018-04-06T11:01:38.581Z,29.00
2018-04-06T11:04:05.960Z,27.93
2018-04-06T11:06:33.349Z,26.52
2018-04-06T11:09:00.725Z,27.87
2018-04-06T11:11:28.112Z,28.30
2018-04-06T11:13:55.485Z,28.05
2018-04-06T11:16:22.880Z,28.29
2018-04-06T11:18:50.258Z,27.02
2018-04-06T11:21:17.664Z,30.75
2018-04-06T11:23:45.033Z,27.78
2018-04-06T11:26:12.601Z,28.95
2018-04-06T11:28:39.984Z,30.02
2018-04-06T11:31:07.376Z,26.67
2018-04-06T11:33:34.767Z,26.65
2018-04-06T11:36:02.149Z,26.13
2018-04-06T11:38:29.533Z,26.19
2018-04-06T11:40:56.912Z,28.68
2018-04-06T11:43:24.302Z,25.65
2018-04-06T11:45:51.722Z,24.87
2018-04-06T11:48:19.104Z,27.47
2018-04-06T11:50:46.487Z,27.17
2018-04-06T11:53:13.872Z,29.25
2018-04-06T11:55:41.252Z,28.67
2018-04-06T11:58:08.638Z,27.01
2018-04-06T12:00:36.016Z,27.48
2018-04-06T12:03:03.407Z,28.54
2018-04-06T12:05:30.845Z,26.57
2018-04-06T12:07:58.232Z,29.29
2018-04-06T12:10:25.612Z,30.42
2018-04-06T12:12:53.001Z,29.57
2018-04-06T12:15:20.388Z,28.87
2018-04-06T12:17:47.789Z,28.86
2018-04-06T12:20:15.172Z,30.84
2018-04-06T12:22:42.548Z,31.38
2018-04-06T12:25:09.944Z,27.90
2018-04-06T12:27:37.328Z,28.39
2018-04-06T12:30:04.711Z,27.91
2018-04-06T12:32:32.112Z,28.21
2018-04-06T12:34:59.500Z,28.41
2018-04-06T12:37:27.057Z,28.66
2018-04-06T12:39:54.424Z,27.87
2018-04-06T12:42:21.804Z,27.04
2018-04-06T12:44:49.217Z,29.01
2018-04-06T12:47:16.597Z,28.02
2018-04-06T12:49:43.985Z,27.75
2018-04-06T12:52:11.364Z,30.34
2018-04-06T12:54:38.816Z,26.88
2018-04-06T12:57:06.197Z,27.00
2018-04-06T12:59:33.576Z,28.30
2018-04-06T13:02:00.961Z,27.74
2018-04-06T13:04:28.340Z,29.31
2018-04-06T13:06:55.721Z,28.00
2018-04-06T13:09:23.100Z,25.16
2018-04-06T13:11:50.486Z,28.29
2018-04-06T13:14:17.861Z,27.79
2018-04-06T13:16:45.253Z,28.47
2018-04-06T13:19:12.627Z,27.52
2018-04-06T13:21:41.675Z,28.00
2018-04-06T13:24:09.049Z,28.37
2018-04-06T13:26:36.432Z,27.87
2018-04-06T13:29:03.813Z,29.93
2018-04-06T13:31:31.200Z,30.44
2018-04-06T13:33:58.584Z,27.90
2018-04-06T13:36:25.958Z,28.12
2018-04-06T13:38:53.340Z,28.89
2018-04-06T13:41:20.721Z,27.81
2018-04-06T13:43:48.105Z,29.66
2018-04-06T13:46:15.494Z,27.22
2018-04-06T13:48:42.868Z,26.93
2018-04-06T13:51:10.249Z,28.07
2018-04-06T13:53:37.628Z,29.59
2018-04-06T13:56:05.016Z,29.39
2018-04-06T13:58:32.416Z,29.05
2018-04-06T14:00:59.865Z,29.83
2018-04-06T14:03:27.173Z,29.36
2018-04-06T14:05:54.547Z,30.33
2018-04-06T14:08:21.936Z,32.38
2018-04-06T14:10:49.313Z,29.15
2018-04-06T14:13:16.704Z,28.76
2018-04-06T14:15:44.099Z,28.99
2018-04-06T14:18:11.474Z,30.30
2018-04-06T14:20:39.003Z,29.22
2018-04-06T14:23:06.390Z,29.93
2018-04-06T14:25:33.777Z,30.11
2018-04-06T14:28:01.157Z,30.70
2018-04-06T14:30:28.540Z,29.89
2018-04-06T14:32:55.920Z,30.11
2018-04-06T14:35:23.300Z,29.43
2018-04-06T14:37:50.676Z,29.00
2018-04-06T14:40:18.065Z,30.70
2018-04-06T14:42:45.440Z,28.75
2018-04-06T14:45:12.896Z,29.71
2018-04-06T14:47:40.280Z,29.63
2018-04-06T14:50:07.664Z,31.05
2018-04-06T14:52:35.040Z,30.50
2018-04-06T14:55:02.426Z,30.29
2018-04-06T14:57:29.805Z,29.96
2018-04-06T14:59:57.500Z,29.04
2018-04-06T15:02:24.884Z,30.24
2018-04-06T15:04:52.252Z,30.44
2018-04-06T15:07:19.637Z,31.64
2018-04-06T15:09:47.013Z,30.86
2018-04-06T15:12:14.392Z,29.37
2018-04-06T15:14:41.773Z,30.15
2018-04-06T15:17:09.225Z,28.56
2018-04-06T15:19:36.601Z,29.54
2018-04-06T15:22:03.983Z,28.83
2018-04-06T15:24:31.360Z,28.84
2018-04-06T15:26:58.741Z,31.55
2018-04-06T15:29:26.115Z,30.42
2018-04-06T15:31:53.500Z,28.90
2018-04-06T15:34:20.878Z,29.56
2018-04-06T15:36:48.304Z,29.59
2018-04-06T15:39:15.694Z,29.26
2018-04-06T15:41:43.073Z,30.11
2018-04-06T15:44:10.464Z,29.14
2018-04-06T15:46:37.839Z,30.24
2018-04-06T15:49:05.227Z,28.51
2018-04-06T15:51:32.619Z,29.84
2018-04-06T15:53:59.992Z,30.42
2018-04-06T15:56:27.381Z,28.62
2018-04-06T15:58:54.756Z,30.39
2018-04-06T16:01:22.138Z,30.42
2018-04-06T16:03:49.520Z,30.44
2018-04-06T16:06:16.900Z,29.72
2018-04-06T16:08:44.280Z,29.82
2018-04-06T16:11:11.660Z,28.13
2018-04-06T16:13:39.056Z,29.20
2018-04-06T16:16:06.435Z,28.30
2018-04-06T16:18:33.816Z,28.95
2018-04-06T16:21:01.196Z,29.16
2018-04-06T16:23:28.582Z,29.37
2018-04-06T16:25:55.995Z,29.99
2018-04-06T16:28:23.508Z,29.84
2018-04-06T16:30:50.888Z,30.42
2018-04-06T16:33:18.285Z,28.33
2018-04-06T16:35:45.660Z,29.34
2018-04-06T16:38:13.036Z,29.68
2018-04-06T16:40:40.434Z,29.83
2018-04-06T16:43:07.810Z,30.83
2018-04-06T16:45:35.184Z,28.52
2018-04-06T16:48:02.832Z,31.25
2018-04-06T16:50:30.208Z,29.50
2018-04-06T16:52:57.592Z,30.47
2018-04-06T16:55:25.009Z,29.17
2018-04-06T16:57:52.387Z,30.81
2018-04-06T17:00:19.765Z,30.36
2018-04-06T17:02:47.184Z,30.18
2018-04-06T17:05:14.557Z,30.66
2018-04-06T17:07:41.935Z,32.07
2018-04-06T17:10:09.358Z,32.15
2018-04-06T17:12:36.736Z,32.52
2018-04-06T17:15:04.203Z,32.69
2018-04-06T17:17:31.598Z,33.24
2018-04-06T17:19:58.976Z,32.66
2018-04-06T17:22:26.352Z,31.91
2018-04-06T17:24:53.746Z,32.58
2018-04-06T17:27:21.120Z,33.24
2018-04-06T17:29:48.510Z,33.12
2018-04-06T17:32:15.912Z,33.54
2018-04-06T17:34:43.467Z,34.48
2018-04-06T17:37:10.860Z,33.91
2018-04-06T17:39:38.240Z,34.79
2018-04-06T17:42:05.612Z,34.42
2018-04-06T17:44:33.000Z,34.69
2018-04-06T17:47:00.386Z,34.94
2018-04-06T17:49:27.760Z,35.78
2018-04-06T17:51:55.152Z,36.23
2018-04-06T17:54:22.545Z,35.97
2018-04-06T17:56:49.933Z,36.78
2018-04-06T17:59:17.323Z,36.22
2018-04-06T18:01:44.705Z,36.72
2018-04-06T18:04:12.093Z,37.72
2018-04-06T18:06:39.484Z,37.28
2018-04-06T18:09:06.864Z,36.85
2018-04-06T18:11:34.245Z,37.53
2018-04-06T18:14:01.636Z,36.78
2018-04-06T18:16:29.012Z,37.33
2018-04-06T18:18:56.400Z,38.34
2018-04-06T18:21:23.788Z,37.31
2018-04-06T18:23:51.168Z,37.43
2018-04-06T18:26:18.545Z,38.25
2018-04-06T18:28:45.928Z,39.09
2018-04-06T18:31:13.309Z,38.04
2018-04-06T18:33:40.702Z,38.68
2018-04-06T18:36:08.133Z,38.08
2018-04-06T18:38:35.460Z,39.59
2018-04-06T18:41:02.854Z,38.70
2018-04-06T18:43:30.237Z,38.74
2018-04-06T18:45:57.611Z,39.22
2018-04-06T18:48:25.008Z,38.75
2018-04-06T18:50:52.389Z,38.82
2018-04-06T18:53:19.767Z,39.17
2018-04-06T18:55:47.180Z,39.22
2018-04-06T18:58:14.561Z,39.36
2018-04-06T19:00:41.941Z,40.46
2018-04-06T19:03:09.348Z,39.90
2018-04-06T19:05:36.728Z,40.61
2018-04-06T19:08:04.108Z,39.91
2018-04-06T19:10:31.512Z,40.45
2018-04-06T19:12:58.892Z,40.65
2018-04-06T19:15:26.264Z,40.18
2018-04-06T19:17:53.660Z,40.75
2018-04-06T19:20:21.032Z,41.46
2018-04-06T19:22:48.414Z,41.68
2018-04-06T19:25:15.796Z,41.84
2018-04-06T19:27:43.173Z,41.62
2018-04-06T19:30:10.600Z,41.63
2018-04-06T19:32:37.997Z,41.75
2018-04-06T19:35:05.381Z,42.92
2018-04-06T19:37:32.761Z,41.59
2018-04-06T19:40:00.156Z,42.69
2018-04-06T19:42:27.604Z,42.31
2018-04-06T19:44:54.929Z,42.44
2018-04-06T19:47:22.324Z,43.06
2018-04-06T19:49:49.705Z,42.99
2018-04-06T19:52:17.089Z,42.75
2018-04-06T19:54:44.481Z,42.73
2018-04-06T19:57:11.864Z,43.37
2018-04-06T19:59:39.252Z,42.83
2018-04-06T20:02:06.645Z,43.49
2018-04-06T20:04:34.028Z,43.53
2018-04-06T20:07:01.460Z,43.10
2018-04-06T20:09:28.858Z,44.16
2018-04-06T20:11:56.248Z,43.81
2018-04-06T20:14:23.630Z,45.11
2018-04-06T20:16:51.085Z,43.94
2018-04-06T20:19:18.466Z,43.87
2018-04-06T20:21:45.852Z,45.59
2018-04-06T20:24:13.245Z,44.23
2018-04-06T20:26:40.620Z,44.77
2018-04-06T20:29:08.012Z,44.23
2018-04-06T20:31:35.416Z,44.29
2018-04-06T20:34:02.801Z,44.10
2018-04-06T20:36:30.188Z,44.19
2018-04-06T20:38:57.604Z,44.52
2018-04-06T20:41:24.989Z,45.02
2018-04-06T20:43:52.371Z,44.79
2018-04-06T20:46:19.772Z,45.27
2018-04-06T20:48:47.165Z,44.93
2018-04-06T20:51:14.556Z,45.64
2018-04-06T20:53:41.968Z,44.44
2018-04-06T20:56:09.353Z,45.76
2018-04-06T20:58:36.741Z,45.42
2018-04-06T21:01:04.148Z,44.83
2018-04-06T21:03:31.550Z,44.60
2018-04-06T21:05:58.930Z,44.84
2018-04-06T21:08:26.336Z,45.21
2018-04-06T21:10:53.720Z,44.94
2018-04-06T21:13:21.104Z,45.88
2018-04-06T21:15:48.501Z,45.44
2018-04-06T21:18:15.892Z,45.16
2018-04-06T21:20:43.281Z,45.35
2018-04-06T21:23:10.692Z,45.94
2018-04-06T21:25:38.075Z,46.19
2018-04-06T21:28:05.467Z,45.78
2018-04-06T21:30:32.860Z,46.08
2018-04-06T21:33:00.244Z,46.25
2018-04-06T21:35:27.628Z,45.68
2018-04-06T21:37:55.037Z,47.04
2018-04-06T21:40:22.425Z,46.99
2018-04-06T21:42:49.808Z,46.90
2018-04-06T21:45:17.239Z,46.36
2018-04-06T21:47:44.608Z,46.28
2018-04-06T21:50:12.001Z,46.04
2018-04-06T21:52:39.396Z,46.76
2018-04-06T21:55:06.788Z,47.05
2018-04-06T21:57:34.168Z,47.00
2018-04-06T22:00:01.569Z,46.98
2018-04-06T22:02:28.948Z,47.15
2018-04-06T22:04:56.336Z,47.32
2018-04-06T22:07:23.733Z,47.10
2018-04-06T22:09:51.119Z,47.31
2018-04-06T22:12:18.540Z,47.68
2018-04-06T22:14:45.929Z,47.45
2018-04-06T22:17:13.308Z,47.12
2018-04-06T22:19:40.689Z,47.58
2018-04-06T22:22:08.088Z,47.58
2018-04-06T22:24:35.524Z,47.96
2018-04-06T22:27:02.904Z,47.46
2018-04-06T22:29:30.416Z,48.33
2018-04-06T22:31:57.796Z,48.03
2018-04-06T22:34:25.192Z,47.84
2018-04-06T22:36:52.599Z,48.04
2018-04-06T22:39:20.013Z,48.27
2018-04-06T22:41:47.403Z,47.94
2018-04-06T22:44:14.805Z,49.00
2018-04-06T22:46:42.239Z,48.71
2018-04-06T22:49:09.608Z,49.25
2018-04-06T22:51:37.032Z,49.23
2018-04-06T22:54:04.426Z,48.00
2018-04-06T22:56:31.801Z,48.63
2018-04-06T22:58:59.204Z,48.65
2018-04-06T23:01:26.588Z,48.31
2018-04-06T23:03:53.972Z,48.23
2018-04-06T23:06:21.397Z,49.10
2018-04-06T23:08:48.773Z,49.23
2018-04-06T23:11:16.157Z,48.72
2018-04-06T23:13:43.572Z,48.79
2018-04-06T23:16:10.956Z,48.49
2018-04-06T23:18:38.349Z,49.97
2018-04-06T23:21:05.772Z,49.25
2018-04-06T23:23:33.160Z,48.93
2018-04-06T23:26:00.540Z,48.85
2018-04-06T23:28:27.948Z,49.23
2018-04-06T23:30:55.325Z,49.23
2018-04-06T23:33:22.712Z,49.00
2018-04-06T23:35:50.108Z,49.44
2018-04-06T23:38:17.493Z,50.36
2018-04-06T23:40:44.873Z,50.11
2018-04-06T23:43:12.276Z,51.10
2018-04-06T23:45:39.656Z,50.08
2018-04-06T23:48:07.041Z,50.52
2018-04-06T23:50:34.433Z,50.10
2018-04-06T23:53:01.820Z,51.04
2018-04-06T23:55:29.221Z,50.20
2018-04-06T23:57:56.612Z,50.23
